Time;durP1;ratioP1;P1;durP2;ratioP2;P2;SDS_P1;SDS_P2;PMS_P1;PMS_P2;Temp;Humidity;BMP_temperature;BMP_pressure;BME280_temperature;BME280_humidity;BME280_pressure;Samples;Min_cycle;Max_cycle;Signal;HPM_P1;HPM_P2
2021/08/23 00:01:08;;;;;;;0.40;0.20;;;;;;;17.04;100.00;100543.44;5052547;28;20487;-79
2021/08/23 00:03:35;;;;;;;0.40;0.20;;;;;;;16.74;100.00;100536.00;5009228;28;20500;-79
2021/08/23 00:06:02;;;;;;;0.40;0.20;;;;;;;16.56;100.00;100544.91;5012406;28;20502;-78
2021/08/23 00:08:30;;;;;;;0.40;0.20;;;;;;;16.55;100.00;100537.78;5010030;28;20451;-79
2021/08/23 00:10:58;;;;;;;0.40;0.20;;;;;;;16.46;100.00;100549.00;5005975;28;20448;-79
2021/08/23 00:13:25;;;;;;;0.40;0.20;;;;;;;16.65;100.00;100541.78;5008397;28;20477;-79
2021/08/23 00:15:54;;;;;;;0.40;0.20;;;;;;;16.85;100.00;100538.97;5013087;28;20526;-79
2021/08/23 00:18:22;;;;;;;0.40;0.20;;;;;;;16.84;100.00;100542.59;5011435;28;20514;-79
2021/08/23 00:20:54;;;;;;;0.40;0.20;;;;;;;16.86;100.00;100537.19;5006185;28;20908;-79
2021/08/23 00:23:24;;;;;;;0.40;0.20;;;;;;;17.10;100.00;100540.41;5037385;28;20455;-79
2021/08/23 00:25:52;;;;;;;0.40;0.20;;;;;;;16.98;100.00;100541.03;5013308;28;20448;-79
2021/08/23 00:28:19;;;;;;;0.40;0.20;;;;;;;16.87;100.00;100534.44;5012590;28;20448;-79
2021/08/23 00:30:47;;;;;;;0.40;0.20;;;;;;;16.87;100.00;100534.44;5026857;28;20439;-79
2021/08/23 00:33:14;;;;;;;0.40;0.20;;;;;;;16.71;100.00;100511.09;5010783;28;20568;-79
2021/08/23 00:35:41;;;;;;;3.30;0.70;;;;;;;16.87;100.00;100522.81;5028620;28;21031;-79
2021/08/23 00:38:08;;;;;;;0.40;0.20;;;;;;;16.75;100.00;100531.47;5017232;28;20869;-79
2021/08/23 00:40:36;;;;;;;0.40;0.20;;;;;;;16.66;100.00;100532.78;5008780;28;20866;-79
2021/08/23 00:43:04;;;;;;;0.40;0.20;;;;;;;16.72;100.00;100526.25;5018535;28;20511;-79
2021/08/23 00:45:31;;;;;;;0.40;0.20;;;;;;;16.38;100.00;100530.56;5036462;28;20543;-78
2021/08/23 00:47:59;;;;;;;0.40;0.20;;;;;;;16.25;100.00;100508.84;5033466;28;20483;-79
2021/08/23 00:50:26;;;;;;;0.40;0.30;;;;;;;16.56;100.00;100531.47;4999486;28;20514;-78
2021/08/23 00:52:53;;;;;;;0.40;0.20;;;;;;;16.29;100.00;100531.88;5015430;28;20452;-79
2021/08/23 00:55:20;;;;;;;0.73;0.73;;;;;;;16.41;100.00;100530.41;5008695;28;20468;-79
2021/08/23 00:57:47;;;;;;;0.40;0.20;;;;;;;16.44;100.00;100530.25;5018707;28;20459;-79
2021/08/23 01:00:15;;;;;;;0.40;0.20;;;;;;;16.55;100.00;100532.44;5055162;28;20488;-79
2021/08/23 01:02:58;;;;;;;0.60;0.50;;;;;;;16.47;100.00;100543.56;5022300;28;20451;-78
2021/08/23 01:05:31;;;;;;;0.40;0.20;;;;;;;16.21;100.00;100538.56;5026426;28;20467;-79
2021/08/23 01:08:05;;;;;;;0.40;0.20;;;;;;;16.10;100.00;100541.75;5030302;28;20459;-78
2021/08/23 01:10:42;;;;;;;0.40;0.20;;;;;;;16.18;100.00;100534.22;5009445;28;20428;-78
2021/08/23 01:13:09;;;;;;;0.40;0.20;;;;;;;16.21;100.00;100541.25;5022313;28;20967;-79
2021/08/23 01:15:40;;;;;;;0.40;0.20;;;;;;;16.37;100.00;100536.03;5009603;28;20463;-79
2021/08/23 01:18:07;;;;;;;0.40;0.30;;;;;;;16.13;100.00;100536.25;5011764;28;20868;-79
2021/08/23 01:20:38;;;;;;;0.40;0.20;;;;;;;16.21;100.00;100535.91;5020233;28;20523;-79
2021/08/23 01:23:07;;;;;;;0.40;0.20;;;;;;;15.82;100.00;100562.75;5039828;28;20508;-79
2021/08/23 01:25:35;;;;;;;0.40;0.20;;;;;;;16.03;100.00;100567.09;5008979;28;20497;-78
2021/08/23 01:28:05;;;;;;;0.40;0.40;;;;;;;15.92;100.00;100564.94;5039807;28;20501;-79
2021/08/23 01:31:04;;;;;;;0.40;0.20;;;;;;;16.01;100.00;100552.91;5028095;28;21001;-79
2021/08/23 01:33:31;;;;;;;0.40;0.20;;;;;;;16.12;100.00;100555.09;5021122;28;20492;-79
2021/08/23 01:36:00;;;;;;;0.40;0.20;;;;;;;16.02;100.00;100546.59;5012213;28;20456;-78
2021/08/23 01:38:26;;;;;;;0.40;0.20;;;;;;;15.94;100.00;100552.34;5034561;28;20447;-79
2021/08/23 01:41:02;;;;;;;0.40;0.20;;;;;;;16.20;100.00;100556.47;5053852;28;20526;-79
2021/08/23 01:43:29;;;;;;;0.40;0.20;;;;;;;16.17;100.00;100550.38;5039355;28;20526;-79
2021/08/23 01:45:56;;;;;;;0.40;0.30;;;;;;;16.23;100.00;100550.09;5017743;28;20440;-79
2021/08/23 01:48:23;;;;;;;0.40;0.20;;;;;;;16.10;100.00;100551.63;5038415;28;20530;-78
2021/08/23 01:50:51;;;;;;;0.80;0.80;;;;;;;16.07;100.00;100552.63;5045550;28;20436;-78
2021/08/23 01:53:18;;;;;;;0.40;0.20;;;;;;;16.15;100.00;100554.94;5025641;28;20862;-79
2021/08/23 01:55:46;;;;;;;0.40;0.20;;;;;;;16.08;100.00;100558.88;5021273;28;20447;-79
2021/08/23 01:58:14;;;;;;;0.40;0.20;;;;;;;16.07;100.00;100563.38;5001040;28;20465;-79
2021/08/23 02:00:41;;;;;;;0.40;0.20;;;;;;;16.10;100.00;100552.50;5032488;28;20484;-78
2021/08/23 02:03:08;;;;;;;0.60;0.40;;;;;;;15.90;100.00;100552.56;5032335;28;20488;-79
2021/08/23 02:05:35;;;;;;;2.20;1.17;;;;;;;15.94;100.00;100546.97;5001164;28;20527;-79
2021/08/23 02:08:03;;;;;;;0.40;0.20;;;;;;;15.75;100.00;100555.91;5037898;28;20806;-79
2021/08/23 02:10:31;;;;;;;0.40;0.20;;;;;;;15.73;100.00;100550.63;5021260;28;20436;-79
2021/08/23 02:12:58;;;;;;;0.40;0.20;;;;;;;15.63;100.00;100547.53;5020809;28;20468;-79
2021/08/23 02:15:24;;;;;;;0.40;0.20;;;;;;;15.51;100.00;100553.41;5020871;28;20443;-78
2021/08/23 02:17:51;;;;;;;0.40;0.20;;;;;;;15.56;100.00;100564.78;5038366;28;20440;-79
2021/08/23 02:20:19;;;;;;;0.40;0.30;;;;;;;15.62;100.00;100560.97;5020857;28;20503;-78
2021/08/23 02:22:47;;;;;;;0.50;0.40;;;;;;;15.49;100.00;100570.44;5053173;28;20459;-78
2021/08/23 02:25:19;;;;;;;1.60;0.97;;;;;;;15.54;100.00;100568.47;5020574;28;20875;-79
2021/08/23 02:27:46;;;;;;;0.50;0.30;;;;;;;15.62;100.00;100560.97;5020802;28;20448;-78
2021/08/23 02:30:13;;;;;;;0.40;0.20;;;;;;;15.67;100.00;100550.94;5038646;28;20439;-78
2021/08/23 02:32:40;;;;;;;0.40;0.30;;;;;;;15.64;100.00;100559.13;5020402;28;20569;-78
2021/08/23 02:35:07;;;;;;;0.40;0.20;;;;;;;15.77;100.00;100562.09;5053206;28;20510;-79
2021/08/23 02:37:34;;;;;;;1.17;0.53;;;;;;;15.68;100.00;100558.91;5020599;28;20487;-79
2021/08/23 02:40:01;;;;;;;0.40;0.20;;;;;;;15.77;100.00;100559.44;5053236;28;20953;-79
2021/08/23 02:42:28;;;;;;;0.40;0.20;;;;;;;15.81;100.00;100566.38;5037498;28;20460;-78
2021/08/23 02:44:55;;;;;;;0.40;0.20;;;;;;;15.74;100.00;100576.50;5019761;28;20533;-79
2021/08/23 02:47:22;;;;;;;0.40;0.20;;;;;;;15.69;100.00;100567.81;5009572;28;20815;-78
2021/08/23 02:49:48;;;;;;;0.40;0.20;;;;;;;15.73;100.00;100573.88;5018153;28;20448;-79
2021/08/23 02:52:16;;;;;;;0.40;0.20;;;;;;;15.65;100.00;100577.81;5037698;28;20452;-78
2021/08/23 02:54:43;;;;;;;0.40;0.20;;;;;;;15.60;100.00;100570.88;5022132;28;20475;-79
2021/08/23 02:57:09;;;;;;;0.40;0.30;;;;;;;15.70;100.00;100581.13;5020598;28;20456;-79
2021/08/23 02:59:36;;;;;;;0.40;0.30;;;;;;;15.70;100.00;100573.09;5032612;28;20507;-78
2021/08/23 03:02:03;;;;;;;0.40;0.20;;;;;;;15.83;100.00;100583.25;5017152;28;20492;-79
2021/08/23 03:04:30;;;;;;;0.40;0.20;;;;;;;15.81;100.00;100574.41;5018266;28;20460;-79
2021/08/23 03:06:57;;;;;;;0.40;0.20;;;;;;;15.83;100.00;100575.22;5037441;28;20455;-79
2021/08/23 03:09:24;;;;;;;0.40;0.20;;;;;;;15.82;100.00;100568.13;5052379;28;20467;-79
2021/08/23 03:11:51;;;;;;;0.40;0.20;;;;;;;15.93;100.00;100572.06;5008740;28;20454;-78
2021/08/23 03:14:18;;;;;;;0.50;0.50;;;;;;;16.02;100.00;100581.47;5035966;28;20827;-79
2021/08/23 03:16:45;;;;;;;0.63;0.57;;;;;;;16.01;100.00;100579.72;5037434;28;20894;-79
2021/08/23 03:19:12;;;;;;;0.40;0.20;;;;;;;16.03;100.00;100571.59;5005864;28;20517;-79
2021/08/23 03:21:39;;;;;;;0.40;0.20;;;;;;;15.94;100.00;100576.47;5036578;28;20492;-79
2021/08/23 03:24:06;;;;;;;0.40;0.20;;;;;;;15.95;100.00;100577.34;5014237;28;20496;-79
2021/08/23 03:26:33;;;;;;;0.40;0.30;;;;;;;16.08;100.00;100574.97;5012954;28;20456;-79
2021/08/23 03:29:00;;;;;;;0.40;0.20;;;;;;;16.02;100.00;100576.09;5013451;28;20969;-79
2021/08/23 03:31:27;;;;;;;0.40;0.20;;;;;;;16.03;100.00;100574.28;5050679;28;20470;-78
2021/08/23 03:33:54;;;;;;;0.40;0.20;;;;;;;16.12;100.00;100579.22;5008178;28;20542;-79
2021/08/23 03:36:20;;;;;;;0.40;0.40;;;;;;;16.11;100.00;100578.38;5020279;28;20452;-79
2021/08/23 03:38:48;;;;;;;0.40;0.20;;;;;;;16.20;100.00;100580.63;5001783;28;20481;-79
2021/08/23 03:41:16;;;;;;;0.40;0.20;;;;;;;16.14;100.00;100578.22;5001695;28;20488;-80
2021/08/23 03:43:43;;;;;;;0.40;0.30;;;;;;;15.93;100.00;100572.06;5010087;28;20468;-79
2021/08/23 03:46:10;;;;;;;0.40;0.20;;;;;;;16.05;100.00;100583.16;5021194;28;20459;-79
2021/08/23 03:48:41;;;;;;;0.40;0.20;;;;;;;16.17;100.00;100579.88;5014014;28;20464;-78
2021/08/23 03:51:08;;;;;;;0.40;0.20;;;;;;;16.35;100.00;100586.22;5016096;28;20456;-79
2021/08/23 03:53:35;;;;;;;0.40;0.20;;;;;;;16.53;100.00;100594.22;5020463;28;20510;-79
2021/08/23 03:56:02;;;;;;;0.40;0.20;;;;;;;16.33;100.00;100585.41;5054614;28;20473;-79
2021/08/23 03:58:29;;;;;;;0.40;0.20;;;;;;;16.32;100.00;100584.53;5039241;28;20476;-80
2021/08/23 04:00:58;;;;;;;0.50;0.40;;;;;;;16.34;100.00;100571.06;5021550;28;21371;-79
2021/08/23 04:03:25;;;;;;;1.43;1.43;;;;;;;16.32;100.00;100567.59;5028435;28;20443;-79
2021/08/23 04:05:52;;;;;;;0.40;0.20;;;;;;;16.38;100.00;100584.25;5016560;28;20483;-79
2021/08/23 04:08:19;;;;;;;0.40;0.20;;;;;;;16.45;100.00;100592.88;5029240;28;20483;-79
2021/08/23 04:10:47;;;;;;;0.40;0.20;;;;;;;16.48;100.00;100588.22;5016636;28;20454;-80
2021/08/23 04:13:15;;;;;;;0.40;0.20;;;;;;;16.44;100.00;100591.13;5032360;28;20464;-80
2021/08/23 04:15:46;;;;;;;0.40;0.20;;;;;;;16.30;100.00;100592.63;5019423;28;20457;-80
2021/08/23 04:18:14;;;;;;;0.40;0.20;;;;;;;16.38;100.00;100591.41;5030323;28;20501;-80
2021/08/23 04:20:41;;;;;;;0.40;0.20;;;;;;;16.27;100.00;100587.41;5038474;28;20495;-80
2021/08/23 04:23:09;;;;;;;0.40;0.20;;;;;;;16.31;100.00;100585.50;5053403;28;20463;-80
2021/08/23 04:25:36;;;;;;;0.40;0.20;;;;;;;16.36;100.00;100570.03;5039339;28;20550;-80
2021/08/23 04:28:03;;;;;;;0.40;0.20;;;;;;;16.54;100.00;100581.69;5036543;28;20885;-80
2021/08/23 04:30:30;;;;;;;0.40;0.20;;;;;;;16.61;100.00;100580.47;5019728;28;20470;-80
2021/08/23 04:32:57;;;;;;;0.40;0.20;;;;;;;16.51;100.00;100576.47;5011308;28;20469;-80
2021/08/23 04:35:24;;;;;;;0.40;0.30;;;;;;;16.58;100.00;100589.53;5035967;28;20899;-79
2021/08/23 04:37:50;;;;;;;0.40;0.20;;;;;;;16.51;100.00;100589.88;5022241;28;20452;-80
2021/08/23 04:40:18;;;;;;;0.40;0.20;;;;;;;16.61;100.00;100588.50;5028719;28;20537;-80
2021/08/23 04:42:45;;;;;;;0.60;0.60;;;;;;;16.66;100.00;100583.78;5024456;28;20985;-80
2021/08/23 04:45:12;;;;;;;0.40;0.30;;;;;;;16.62;100.00;100584.00;5028472;28;20456;-79
2021/08/23 04:47:39;;;;;;;0.40;0.20;;;;;;;16.62;100.00;100590.25;5056433;28;21032;-80
2021/08/23 04:50:06;;;;;;;0.40;0.20;;;;;;;16.68;100.00;100587.28;5011163;28;20455;-79
2021/08/23 04:52:40;;;;;;;0.40;0.20;;;;;;;16.71;100.00;100597.00;5023790;28;20953;-80
2021/08/23 04:55:07;;;;;;;0.93;0.93;;;;;;;16.79;100.00;100594.81;5016204;28;20487;-80
2021/08/23 04:57:34;;;;;;;0.40;0.20;;;;;;;16.85;100.00;100600.72;5036295;28;20486;-80
2021/08/23 05:00:01;;;;;;;0.40;0.20;;;;;;;16.82;100.00;100600.03;5023871;28;20447;-80
2021/08/23 05:02:30;;;;;;;0.40;0.23;;;;;;;16.87;100.00;100601.56;5035010;28;20936;-80
2021/08/23 05:04:56;;;;;;;0.60;0.60;;;;;;;16.88;100.00;100599.75;5041624;28;20894;-79
2021/08/23 05:07:23;;;;;;;0.40;0.20;;;;;;;17.04;100.00;100607.91;5041971;28;20505;-80
2021/08/23 05:09:50;;;;;;;0.40;0.20;;;;;;;17.00;100.00;100603.63;5056673;28;20446;-80
2021/08/23 05:12:17;;;;;;;0.40;0.30;;;;;;;17.03;100.00;100614.22;5038880;28;20834;-80
2021/08/23 05:14:44;;;;;;;0.40;0.20;;;;;;;17.15;100.00;100605.53;5031627;28;20479;-80
2021/08/23 05:17:11;;;;;;;0.40;0.20;;;;;;;17.48;100.00;100603.81;5038616;28;20472;-80
2021/08/23 05:19:38;;;;;;;0.40;0.20;;;;;;;17.60;100.00;100607.66;5032508;28;20455;-80
2021/08/23 05:22:05;;;;;;;1.13;1.07;;;;;;;17.37;100.00;100595.41;5024231;28;20526;-80
2021/08/23 05:24:32;;;;;;;1.47;0.63;;;;;;;17.73;100.00;100610.63;5050763;28;20499;-79
2021/08/23 05:26:59;;;;;;;0.40;0.20;;;;;;;17.72;100.00;100599.00;5038703;28;20697;-80
2021/08/23 05:29:26;;;;;;;0.40;0.20;;;;;;;18.04;100.00;100599.06;5036621;28;20452;-80
2021/08/23 05:31:52;;;;;;;0.40;0.20;;;;;;;17.97;100.00;100603.94;5041108;28;20448;-80
2021/08/23 05:34:19;;;;;;;0.40;0.20;;;;;;;17.60;100.00;100604.13;5056546;28;20471;-80
2021/08/23 05:36:46;;;;;;;0.40;0.20;;;;;;;17.48;100.00;100603.81;5008231;28;20984;-80
2021/08/23 05:39:13;;;;;;;0.53;0.47;;;;;;;17.97;100.00;100613.81;5014166;28;20455;-80
2021/08/23 05:41:40;;;;;;;0.40;0.20;;;;;;;18.49;100.00;100616.31;5055162;28;20499;-79
2021/08/23 05:44:07;;;;;;;0.40;0.20;;;;;;;18.78;100.00;100612.91;5012097;28;20476;-80
2021/08/23 05:46:34;;;;;;;0.40;0.30;;;;;;;19.10;100.00;100616.41;5029757;28;20830;-79
2021/08/23 05:49:01;;;;;;;0.40;0.20;;;;;;;18.79;100.00;100619.16;5013605;28;20482;-79
2021/08/23 05:51:28;;;;;;;0.40;0.20;;;;;;;18.45;100.00;100621.00;5055860;28;20957;-79
2021/08/23 05:53:54;;;;;;;0.40;0.20;;;;;;;18.79;100.00;100619.16;5055804;28;20513;-79
2021/08/23 05:56:21;;;;;;;0.40;0.20;;;;;;;18.72;100.00;100620.44;5039041;28;20486;-78
2021/08/23 05:58:48;;;;;;;0.40;0.30;;;;;;;18.65;100.00;100622.63;5014020;28;20475;-78
2021/08/23 06:01:15;;;;;;;0.60;0.40;;;;;;;18.28;100.00;100621.94;5011034;28;20492;-78
2021/08/23 06:03:42;;;;;;;0.40;0.20;;;;;;;18.28;100.00;100623.78;5017500;28;20468;-77
2021/08/23 06:06:09;;;;;;;4.03;1.90;;;;;;;18.82;100.00;100624.34;5035383;28;20483;-78
2021/08/23 06:08:36;;;;;;;0.40;0.20;;;;;;;18.55;100.00;100619.53;5014480;28;20452;-79
2021/08/23 06:11:03;;;;;;;0.40;0.20;;;;;;;18.60;100.00;100621.97;5033498;28;20570;-77
2021/08/23 06:13:30;;;;;;;0.40;0.20;;;;;;;18.30;100.00;100625.44;5017528;28;20479;-78
2021/08/23 06:15:57;;;;;;;0.40;0.20;;;;;;;18.64;100.00;100623.59;5036859;28;20460;-78
2021/08/23 06:18:24;;;;;;;0.40;0.20;;;;;;;18.91;100.00;100623.81;5035159;28;20451;-78
2021/08/23 06:20:51;;;;;;;0.50;0.40;;;;;;;18.88;100.00;100621.28;5021137;28;20483;-79
2021/08/23 06:23:18;;;;;;;0.43;0.30;;;;;;;18.90;100.00;100616.69;5034416;28;20511;-77
2021/08/23 06:25:46;;;;;;;10.53;1.63;;;;;;;18.81;100.00;100626.19;5047716;28;20490;-77
2021/08/23 06:28:13;;;;;;;0.40;0.20;;;;;;;18.73;100.00;100616.78;5012398;28;20431;-79
2021/08/23 06:30:40;;;;;;;0.90;0.50;;;;;;;18.84;100.00;100619.75;5021932;28;20512;-77
2021/08/23 06:33:07;;;;;;;0.40;0.20;;;;;;;18.63;100.00;100613.72;5009353;28;20901;-78
2021/08/23 06:35:34;;;;;;;0.40;0.20;;;;;;;18.49;100.00;100614.50;5034337;28;20957;-77
2021/08/23 06:38:01;;;;;;;0.40;0.20;;;;;;;18.48;100.00;100619.97;5045297;28;20451;-77
2021/08/23 06:40:28;;;;;;;0.40;0.20;;;;;;;18.41;100.00;100615.91;5008256;28;20492;-78
2021/08/23 06:42:55;;;;;;;0.40;0.20;;;;;;;18.35;100.00;100617.09;5009974;28;20556;-78
2021/08/23 06:45:22;;;;;;;0.40;0.30;;;;;;;18.89;100.00;100623.03;5006039;28;20447;-79
2021/08/23 06:47:49;;;;;;;0.40;0.20;;;;;;;18.80;100.00;100628.97;5020769;28;20445;-78
2021/08/23 06:50:16;;;;;;;0.40;0.20;;;;;;;19.12;100.00;100619.88;5025376;28;20519;-78
2021/08/23 06:52:44;;;;;;;0.40;0.20;;;;;;;18.98;100.00;100624.34;5012951;28;20506;-78
2021/08/23 06:55:12;;;;;;;0.73;0.73;;;;;;;18.99;100.00;100616.16;5007335;28;20452;-79
2021/08/23 06:57:39;;;;;;;0.40;0.20;;;;;;;19.27;100.00;100612.72;5027760;28;20494;-78
2021/08/23 07:00:06;;;;;;;0.50;0.47;;;;;;;19.75;100.00;100625.13;5023639;28;20474;-78
2021/08/23 07:02:33;;;;;;;0.40;0.20;;;;;;;19.82;100.00;100621.06;5003779;28;20469;-79
2021/08/23 07:05:01;;;;;;;0.40;0.20;;;;;;;19.77;100.00;100625.88;5007336;28;20431;-78
2021/08/23 07:07:29;;;;;;;0.40;0.20;;;;;;;19.80;100.00;100622.13;5000629;28;20440;-78
2021/08/23 07:09:56;;;;;;;0.50;0.40;;;;;;;20.43;100.00;100626.31;5023691;28;20917;-79
2021/08/23 07:12:22;;;;;;;0.40;0.20;;;;;;;20.48;100.00;100626.88;5027764;28;20499;-78
2021/08/23 07:14:49;;;;;;;0.40;0.20;;;;;;;20.79;99.84;100626.63;5008143;28;20476;-79
2021/08/23 07:17:16;;;;;;;0.50;0.50;;;;;;;20.35;100.00;100626.75;5021056;28;20494;-78
2021/08/23 07:19:43;;;;;;;0.40;0.20;;;;;;;19.99;100.00;100628.09;5050760;28;20452;-78
2021/08/23 07:22:22;;;;;;;0.40;0.20;;;;;;;20.51;100.00;100629.38;5005368;28;20871;-78
2021/08/23 07:24:49;;;;;;;0.40;0.30;;;;;;;20.34;100.00;100628.59;5004736;28;20480;-79
2021/08/23 07:27:16;;;;;;;11.13;1.70;;;;;;;20.68;100.00;100634.56;5030403;28;21001;-81
2021/08/23 07:29:43;;;;;;;0.40;0.30;;;;;;;20.24;100.00;100626.56;5036099;28;20427;-78
2021/08/23 07:32:11;;;;;;;0.40;0.30;;;;;;;20.19;100.00;100629.56;5042839;28;20423;-79
2021/08/23 07:34:38;;;;;;;0.40;0.20;;;;;;;20.78;99.24;100640.22;5011323;28;20538;-79
2021/08/23 07:37:05;;;;;;;0.40;0.20;;;;;;;20.55;100.00;100639.00;5018059;28;20439;-78
2021/08/23 07:39:32;;;;;;;0.40;0.20;;;;;;;20.53;99.61;100635.53;5004899;28;20608;-79
2021/08/23 07:42:00;;;;;;;0.40;0.20;;;;;;;20.70;98.40;100643.44;4998142;28;20471;-78
2021/08/23 07:44:27;;;;;;;0.40;0.33;;;;;;;20.24;100.00;100640.06;5011225;28;20476;-80
2021/08/23 07:46:53;;;;;;;2.77;0.60;;;;;;;20.55;99.20;100639.88;5005959;28;20468;-78
2021/08/23 07:49:20;;;;;;;0.40;0.20;;;;;;;20.52;98.65;100634.69;5050240;28;20462;-80
2021/08/23 07:51:47;;;;;;;0.40;0.20;;;;;;;20.29;98.90;100633.44;5004728;28;20454;-79
2021/08/23 07:54:16;;;;;;;0.60;0.50;;;;;;;20.77;95.54;100638.50;5004756;28;20469;-79
2021/08/23 07:56:45;;;;;;;0.40;0.20;;;;;;;20.90;95.80;100637.59;5010579;28;20441;-78
2021/08/23 07:59:12;;;;;;;0.40;0.20;;;;;;;20.90;95.46;100639.44;5018805;28;20511;-78
2021/08/23 08:01:39;;;;;;;0.40;0.23;;;;;;;20.95;96.26;100651.66;5028004;28;20599;-79
2021/08/23 08:04:06;;;;;;;0.40;0.20;;;;;;;20.91;94.69;100644.72;5029210;28;20483;-79
2021/08/23 08:06:33;;;;;;;2.73;1.60;;;;;;;20.88;95.81;100644.06;5023205;28;20466;-79
2021/08/23 08:09:00;;;;;;;0.63;0.60;;;;;;;20.85;95.57;100638.88;5023000;28;20813;-79
2021/08/23 08:11:27;;;;;;;0.50;0.30;;;;;;;20.88;95.31;100642.25;5051295;28;20426;-79
2021/08/23 08:13:54;;;;;;;0.40;0.20;;;;;;;20.92;95.65;100651.00;5016222;28;20497;-80
2021/08/23 08:16:21;;;;;;;0.40;0.30;;;;;;;20.64;96.65;100649.22;5007061;28;20442;-79
2021/08/23 08:18:48;;;;;;;0.40;0.30;;;;;;;21.18;93.51;100657.38;5049054;28;20467;-78
2021/08/23 08:21:15;;;;;;;0.40;0.20;;;;;;;21.15;92.74;100654.91;5007555;28;20444;-78
2021/08/23 08:23:42;;;;;;;0.40;0.20;;;;;;;20.78;93.94;100664.56;5002063;28;20471;-79
2021/08/23 08:26:09;;;;;;;0.50;0.40;;;;;;;20.91;92.89;100669.06;5006446;28;20484;-78
2021/08/23 08:28:36;;;;;;;0.40;0.20;;;;;;;20.89;93.96;100657.47;5047059;28;20505;-79
2021/08/23 08:31:03;;;;;;;0.40;0.20;;;;;;;21.40;92.23;100659.56;5028401;28;20450;-78
2021/08/23 08:33:30;;;;;;;0.50;0.50;;;;;;;21.59;92.69;100654.63;5024824;28;20442;-78
2021/08/23 08:35:59;;;;;;;0.40;0.20;;;;;;;21.79;91.83;100656.84;5050458;28;20486;-78
2021/08/23 08:38:26;;;;;;;1.90;0.87;;;;;;;21.80;90.16;100657.72;5032091;28;20473;-79
2021/08/23 08:40:58;;;;;;;0.40;0.30;;;;;;;21.67;89.34;100662.22;5026075;28;20471;-79
2021/08/23 08:43:26;;;;;;;0.40;0.20;;;;;;;21.73;90.10;100669.91;5021480;28;20470;-80
2021/08/23 08:45:53;;;;;;;0.40;0.20;;;;;;;21.66;90.81;100668.63;5023985;28;20444;-79
2021/08/23 08:48:21;;;;;;;0.40;0.30;;;;;;;21.88;91.11;100664.31;5029760;28;20784;-79
2021/08/23 08:50:49;;;;;;;10.50;1.23;;;;;;;22.09;89.16;100663.81;5028065;28;20455;-79
2021/08/23 08:53:17;;;;;;;0.40;0.30;;;;;;;22.09;87.45;100659.28;5005322;28;20984;-78
2021/08/23 08:55:44;;;;;;;0.40;0.20;;;;;;;22.24;85.91;100656.44;5006024;28;20435;-79
2021/08/23 08:58:11;;;;;;;0.40;0.20;;;;;;;22.00;85.85;100662.56;5012223;28;20485;-79
2021/08/23 09:00:40;;;;;;;0.40;0.20;;;;;;;21.52;89.51;100662.31;5012075;28;20444;-78
2021/08/23 09:03:09;;;;;;;0.40;0.30;;;;;;;21.50;90.45;100675.03;4998485;28;20950;-78
2021/08/23 09:05:42;;;;;;;0.40;0.30;;;;;;;21.59;88.93;100668.16;5030376;28;20440;-78
2021/08/23 09:08:09;;;;;;;0.47;0.40;;;;;;;20.99;91.28;100679.38;5051101;28;20423;-78
2021/08/23 09:10:41;;;;;;;0.40;0.20;;;;;;;21.22;91.62;100676.00;5004491;28;20499;-79
2021/08/23 09:13:11;;;;;;;0.40;0.30;;;;;;;21.57;90.76;100676.38;5008815;28;20870;-80
2021/08/23 09:15:59;;;;;;;0.40;0.20;;;;;;;21.52;89.79;100680.38;5011433;28;20456;-79
2021/08/23 09:18:30;;;;;;;0.50;0.40;;;;;;;21.47;89.73;100677.97;5012850;28;20446;-79
2021/08/23 09:21:05;;;;;;;0.73;0.67;;;;;;;21.81;86.17;100679.25;5001598;28;21083;-80
2021/08/23 09:23:41;;;;;;;0.50;0.30;;;;;;;21.82;85.83;100682.81;5032730;28;20808;-78
2021/08/23 09:26:13;;;;;;;0.40;0.30;;;;;;;21.93;83.98;100680.25;5029277;28;20426;-79
2021/08/23 09:28:42;;;;;;;0.40;0.20;;;;;;;21.92;82.79;100685.75;5013132;28;20456;-78
2021/08/23 09:31:12;;;;;;;1.57;0.50;;;;;;;22.29;82.28;100679.50;5034528;28;20429;-80
2021/08/23 09:33:45;;;;;;;0.40;0.20;;;;;;;22.64;82.84;100686.97;5024599;28;20446;-79
2021/08/23 09:36:18;;;;;;;0.40;0.20;;;;;;;22.77;79.42;100685.97;5031972;28;20480;-79
2021/08/23 09:38:58;;;;;;;0.40;0.27;;;;;;;22.74;79.86;100690.72;5026573;28;20448;-79
2021/08/23 09:41:25;;;;;;;0.40;0.20;;;;;;;22.83;78.72;100686.50;5025835;28;20464;-80
2021/08/23 09:44:01;;;;;;;0.40;0.30;;;;;;;22.74;79.10;100688.88;5039601;28;20535;-80
2021/08/23 09:46:28;;;;;;;0.40;0.27;;;;;;;22.98;80.74;100686.25;5027160;28;20477;-79
2021/08/23 09:48:55;;;;;;;0.50;0.40;;;;;;;22.61;79.37;100690.75;5011031;28;20431;-79
2021/08/23 09:51:31;;;;;;;0.40;0.20;;;;;;;22.57;79.21;100697.38;5036962;28;20434;-79
2021/08/23 09:54:09;;;;;;;1.47;1.37;;;;;;;22.05;82.11;100697.44;5025750;28;20939;-79
2021/08/23 09:56:45;;;;;;;0.40;0.20;;;;;;;21.80;83.05;100701.00;5000953;28;20475;-79
2021/08/23 09:59:20;;;;;;;0.40;0.20;;;;;;;21.88;83.31;100706.75;5003321;28;20778;-79
2021/08/23 10:01:49;;;;;;;0.50;0.30;;;;;;;21.81;83.21;100700.91;5010180;28;20926;-79
2021/08/23 10:04:18;;;;;;;0.40;0.30;;;;;;;21.78;83.80;100702.94;5034693;28;20503;-78
2021/08/23 10:06:47;;;;;;;1.60;0.73;;;;;;;21.77;83.91;100707.47;5009504;28;20431;-79
2021/08/23 10:09:23;;;;;;;0.40;0.20;;;;;;;21.85;83.36;100707.81;5035511;28;20462;-79
2021/08/23 10:11:52;;;;;;;0.40;0.20;;;;;;;22.05;82.72;100706.47;5020886;28;20447;-79
2021/08/23 10:14:19;;;;;;;0.40;0.23;;;;;;;22.33;83.48;100694.56;5025182;28;20492;-79
2021/08/23 10:16:47;;;;;;;0.40;0.20;;;;;;;22.55;79.72;100695.75;5008581;28;20460;-79
2021/08/23 10:19:14;;;;;;;0.40;0.20;;;;;;;22.57;79.13;100696.50;5021362;28;20459;-80
2021/08/23 10:21:50;;;;;;;0.40;0.20;;;;;;;22.52;79.23;100698.69;5053293;28;20546;-80
2021/08/23 10:24:26;;;;;;;0.40;0.20;;;;;;;22.83;77.63;100700.06;5021400;28;20498;-79
2021/08/23 10:26:54;;;;;;;1.83;0.67;;;;;;;22.84;79.94;100699.09;5026478;28;20487;-79
2021/08/23 10:29:22;;;;;;;1.90;0.70;;;;;;;22.71;77.77;100699.94;5018422;28;20825;-79
2021/08/23 10:31:50;;;;;;;0.40;0.20;;;;;;;23.21;76.29;100699.97;5032312;28;20460;-79
2021/08/23 10:34:21;;;;;;;0.40;0.20;;;;;;;22.88;76.59;100696.03;5029223;28;20467;-79
2021/08/23 10:36:50;;;;;;;0.40;0.40;;;;;;;22.35;78.78;100691.78;5020465;28;20502;-79
2021/08/23 10:39:22;;;;;;;0.40;0.30;;;;;;;22.42;78.10;100704.75;5009905;28;20428;-78
2021/08/23 10:41:51;;;;;;;0.90;0.90;;;;;;;22.67;78.54;100697.56;5032033;28;20464;-78
2021/08/23 10:44:31;;;;;;;0.40;0.30;;;;;;;23.15;78.49;100697.69;5013380;28;20522;-78
2021/08/23 10:47:11;;;;;;;0.50;0.43;;;;;;;22.91;75.84;100705.81;5019032;28;20451;-79
2021/08/23 10:49:46;;;;;;;0.40;0.20;;;;;;;23.27;76.21;100700.34;5015212;28;20491;-79
2021/08/23 10:52:15;;;;;;;0.43;0.33;;;;;;;23.46;75.22;100693.56;5012711;28;20497;-79
2021/08/23 10:54:48;;;;;;;0.40;0.30;;;;;;;23.83;75.94;100684.31;5008265;28;20491;-79
2021/08/23 10:57:24;;;;;;;0.50;0.40;;;;;;;24.14;74.13;100699.13;5039260;28;20452;-79
2021/08/23 10:59:54;;;;;;;0.40;0.30;;;;;;;24.05;72.69;100693.53;5022296;28;20443;-79
2021/08/23 11:02:35;;;;;;;0.40;0.20;;;;;;;23.89;73.67;100691.16;5035299;28;20484;-79
2021/08/23 11:05:22;;;;;;;0.73;0.73;;;;;;;24.64;69.98;100690.66;5029635;28;20832;-79
2021/08/23 11:08:02;;;;;;;0.50;0.30;;;;;;;24.70;68.69;100680.16;5000386;28;20570;-79
2021/08/23 11:10:32;;;;;;;1.17;0.83;;;;;;;24.32;69.17;100677.81;5032246;28;20513;-79
2021/08/23 11:13:18;;;;;;;1.07;1.07;;;;;;;24.56;71.25;100679.53;5010376;28;21038;-78
2021/08/23 11:15:46;;;;;;;1.00;0.57;;;;;;;24.28;69.75;100679.00;5017054;28;20842;-78
2021/08/23 11:18:15;;;;;;;0.50;0.50;;;;;;;24.09;73.13;100681.44;5012778;28;20437;-79
2021/08/23 11:20:51;;;;;;;0.50;0.50;;;;;;;23.81;72.07;100671.88;5007639;28;20458;-78
2021/08/23 11:23:27;;;;;;;0.40;0.30;;;;;;;23.50;73.44;100676.91;5007266;28;21065;-79
2021/08/23 11:26:02;;;;;;;1.13;0.57;;;;;;;23.67;73.67;100666.63;5024905;28;20456;-79